CheckWX is a tool to help pilots better visualize weather data.  It is not intended as a substitute for an official pre-flight weather briefing.

13:12:24 UTC

EGDY METAR
RNAS Yeovilton Airport
Yeovil, United Kingdom
Current

22 mins ago

EGDY 221250Z 12012KT 8000 HZ FEW008 SCT200 10/07 Q1034 BLU NOSIG
Observed
Feb-22 @ 12:50 UTC
Wind
  • 120° at 12 KTS
Visibility
7,998 meters
Flight Rules
MVFR
Conditions
Haze
Cloud Levels
  • Few at 800' AGL
  • Scattered at 20,000' AGL
Temperature
10°C / 50°F
Dewpoint
C / 45°F
Humidity
82%
Altimeter
30.53" Hg
Pressure
1033.91 hPa
Previous

1 hour ago

EGDY 221150Z 11009KT 5000 HZ FEW008 SCT200 10/07 Q1034 WHT NOSIG
Observed
Feb-22 @ 11:50 UTC
Wind
  • 110° at 9 KTS
Visibility
5,005 meters
Flight Rules
MVFR
Conditions
Haze
Cloud Levels
  • Few at 800' AGL
  • Scattered at 20,000' AGL
Temperature
10°C / 50°F
Dewpoint
C / 45°F
Humidity
82%
Altimeter
30.53" Hg
Pressure
1033.91 hPa
Previous

2 hours ago

EGDY 221050Z 14010KT 4500 HZ FEW005 BKN007 09/08 Q1034 GRN BECMG 6000 HZ FEW008 WHT
Observed
Feb-22 @ 10:50 UTC
Wind
  • 140° at 10 KTS
Visibility
4,506 meters
Flight Rules
IFR
Conditions
Haze
Cloud Levels
  • Few at 500' AGL
  • Broken at 700' AGL
Temperature
C / 48°F
Dewpoint
C / 46°F
Humidity
94%
Altimeter
30.53" Hg
Pressure
1033.91 hPa